usa flag      colorado flag

Language: 

TigerDenWX History Data from Weather Underground


TigerDenWX Weather Station Historical Data
 
Daily Summary for October 15, 2018 Units:  English    Metric   Both
« Previous Day
Next Day »
Daily Weekly Monthly Yearly Custom
  Current: High: Low: Average:
Temperature: 18.9 °F TemperatureF °F 18.9 °F 19.5 °F
Dew Point: 14.9 °F DewpointF °F 14.9 °F 15.7 °F
Humidity: 84 % Humidity % 84 % 82 %
Wind Speed: 0 mph WindSpeedMPH mph 0 mph 0.1 mph
Wind Gust: 3 mph WindSpeedGustMPH mph - -
Wind:Calm - - South
Pressure: 30.58 in PressureIn in 30.56 in -
Precipitation: 0 in      
Historical Graphs
 
 
Tabular Data for October 15, 2018
Time Temperature Dew Point Pressure Wind Wind Speed Wind Gust Humidity Rainfall Rate (Hourly) solar
TemperatureF °F DewpointF °F PressureIn in Calm     Humidity % HourlyPrecipIn in SolarRadiationWatts/m^2 W/m2
00:05 20.7 °F 16.6 °F 30.56 in Calm     84 % 0 in 0.00 W/m2
00:09 20.8 °F 17 °F 30.56 in Calm   1 mph 85 % 0 in 0.00 W/m2
00:14 20.9 °F 17.1 °F 30.56 in Calm   1 mph 85 % 0 in 0.00 W/m2
00:19 20.9 °F 17.1 °F 30.56 in Calm   1 mph 85 % 0 in 0.00 W/m2
00:24 21.1 °F 17.3 °F 30.56 in Calm   2 mph 85 % 0 in 0.00 W/m2
00:29 21 °F 17.2 °F 30.56 in Calm   2 mph 85 % 0 in 0.00 W/m2
00:34 21 °F 17.2 °F 30.56 in Calm   2 mph 85 % 0 in 0.00 W/m2
00:39 20.9 °F 17.1 °F 30.56 in Calm   1 mph 85 % 0 in 0.00 W/m2
00:44 20.8 °F 17 °F 30.57 in Calm   1 mph 85 % 0 in 0.00 W/m2
00:50 20.7 °F 16.9 °F 30.56 in Calm   2 mph 85 % 0 in 0.00 W/m2
00:54 20.7 °F 16.9 °F 30.57 in Calm   2 mph 85 % 0 in 0.00 W/m2
00:59 20.7 °F 16.9 °F 30.56 in Calm   4 mph 85 % 0 in 0.00 W/m2
01:04 20.7 °F 16.9 °F 30.56 in Calm   4 mph 85 % 0 in 0.00 W/m2
01:09 20.8 °F 17 °F 30.56 in South 1 mph 3 mph 85 % 0 in 0.00 W/m2
01:15 20.8 °F 17 °F 30.56 in Calm   3 mph 85 % 0 in 0.00 W/m2
01:19 20.8 °F 17 °F 30.57 in Calm   4 mph 85 % 0 in 0.00 W/m2
01:24 20.7 °F 16.6 °F 30.56 in Calm   4 mph 84 % 0 in 0.00 W/m2
01:29 20.7 °F 16.6 °F 30.57 in Calm   1 mph 84 % 0 in 0.00 W/m2
01:35 20.5 °F 16.4 °F 30.57 in Calm   1 mph 84 % 0 in 0.00 W/m2
01:39 20.4 °F 16.3 °F 30.57 in Calm   2 mph 84 % 0 in 0.00 W/m2
01:44 20.2 °F 16.1 °F 30.57 in Calm   2 mph 84 % 0 in 0.00 W/m2
01:49 19.9 °F 15.8 °F 30.57 in Calm   1 mph 84 % 0 in 0.00 W/m2
01:54 19.8 °F 15.7 °F 30.57 in Calm   3 mph 84 % 0 in 0.00 W/m2
01:59 19.7 °F 15.6 °F 30.57 in Calm   3 mph 84 % 0 in 0.00 W/m2
02:05 19.7 °F 15.6 °F 30.58 in Calm   2 mph 84 % 0 in 0.00 W/m2
02:09 19.6 °F 15.6 °F 30.58 in Calm   3 mph 84 % 0 in 0.00 W/m2
02:14 19.5 °F 15.7 °F 30.58 in Calm   3 mph 85 % 0 in 0.00 W/m2
02:20 19.4 °F 15.4 °F 30.58 in Calm   3 mph 84 % 0 in 0.00 W/m2
02:24 19.3 °F 15.3 °F 30.58 in Calm   2 mph 84 % 0 in 0.00 W/m2
02:29 19.1 °F 15.1 °F 30.58 in Calm   3 mph 84 % 0 in 0.00 W/m2
02:34 19.1 °F 15.1 °F 30.58 in Calm   3 mph 84 % 0 in 0.00 W/m2
02:39 19 °F 15 °F 30.58 in Calm   2 mph 84 % 0 in 0.00 W/m2
02:44 18.9 °F 14.9 °F 30.58 in Calm   2 mph 84 % 0 in 0.00 W/m2
02:50 18.9 °F 14.9 °F 30.58 in Calm   3 mph 84 % 0 in 0.00 W/m2
02:54 18.9 °F 14.9 °F 30.58 in SSW 1 mph 3 mph 84 % 0 in 0.00 W/m2
02:59 18.9 °F 14.9 °F 30.58 in Calm   3 mph 84 % 0 in 0.00 W/m2
03:04 18.9 °F 14.9 °F 30.58 in SSE 1 mph 3 mph 84 % 0 in 0.00 W/m2
03:09 19 °F 15 °F 30.58 in Calm   6 mph 84 % 0 in 0.00 W/m2
03:14 18.9 °F 14.9 °F 30.58 in Calm   6 mph 84 % 0 in 0.00 W/m2
03:19 18.9 °F 14.9 °F 30.58 in Calm   4 mph 84 % 0 in 0.00 W/m2
03:24 18.9 °F 14.9 °F 30.58 in Calm   4 mph 84 % 0 in 0.00 W/m2
03:30 18.9 °F 14.9 °F 30.58 in Calm   3 mph 84 % 0 in 0.00 W/m2
SE Aurora, Colorado Weather
Compliments of Weather Underground - 2 mb
top